Terminal Aerodrome Forecast
Issued by NWS

Current Version | Previous Version | Text Only | Print | Product List | Glossary On
Versions: 1 2 3 4 5 6 7 8 9 10 11 12 13 14
000
FTUS45 KABQ 211700
TAFFMN
TAF
KFMN 211740Z 2118/2218 14007KT P6SM BKN100
     FM212100 21007KT P6SM VCTS BKN070CB
     FM220100 26007KT P6SM VCSH BKN080
     FM220500 08006KT P6SM SCT100=

USA.gov is the U.S. government's official web portal to all federal, state and local government web resources and services.